sensor_id;sensor_type;location;lat;lon;timestamp;P1;durP1;ratioP1;P2;durP2;ratioP2
74892;SDS011;63446;56.272;43.922;2023-03-15T00:00:52;2.53;;;0.63;;
74892;SDS011;63446;56.272;43.922;2023-03-15T00:03:19;4.10;;;0.80;;
74892;SDS011;63446;56.272;43.922;2023-03-15T00:05:47;3.17;;;0.80;;
74892;SDS011;63446;56.272;43.922;2023-03-15T00:08:13;4.23;;;0.80;;
74892;SDS011;63446;56.272;43.922;2023-03-15T00:10:41;4.53;;;1.15;;
74892;SDS011;63446;56.272;43.922;2023-03-15T00:13:08;5.32;;;0.95;;
74892;SDS011;63446;56.272;43.922;2023-03-15T00:15:35;2.92;;;0.80;;
74892;SDS011;63446;56.272;43.922;2023-03-15T00:18:01;4.45;;;0.80;;
74892;SDS011;63446;56.272;43.922;2023-03-15T00:20:30;4.57;;;0.90;;
74892;SDS011;63446;56.272;43.922;2023-03-15T00:22:55;3.80;;;0.80;;
74892;SDS011;63446;56.272;43.922;2023-03-15T00:25:22;3.95;;;0.70;;
74892;SDS011;63446;56.272;43.922;2023-03-15T00:27:47;4.03;;;0.73;;
74892;SDS011;63446;56.272;43.922;2023-03-15T00:30:15;3.83;;;0.70;;
74892;SDS011;63446;56.272;43.922;2023-03-15T00:32:42;4.57;;;1.03;;
74892;SDS011;63446;56.272;43.922;2023-03-15T00:35:09;2.22;;;0.60;;
74892;SDS011;63446;56.272;43.922;2023-03-15T00:37:37;3.85;;;0.70;;
74892;SDS011;63446;56.272;43.922;2023-03-15T00:40:04;2.83;;;0.60;;
74892;SDS011;63446;56.272;43.922;2023-03-15T00:42:32;3.38;;;0.80;;
74892;SDS011;63446;56.272;43.922;2023-03-15T00:44:58;6.10;;;0.90;;
74892;SDS011;63446;56.272;43.922;2023-03-15T00:47:25;2.83;;;0.60;;
74892;SDS011;63446;56.272;43.922;2023-03-15T00:49:52;5.00;;;0.70;;
74892;SDS011;63446;56.272;43.922;2023-03-15T00:52:17;3.60;;;0.73;;
74892;SDS011;63446;56.272;43.922;2023-03-15T00:54:49;3.13;;;0.80;;
74892;SDS011;63446;56.272;43.922;2023-03-15T00:57:17;3.08;;;0.70;;
74892;SDS011;63446;56.272;43.922;2023-03-15T00:59:43;4.07;;;0.70;;
74892;SDS011;63446;56.272;43.922;2023-03-15T01:02:09;4.18;;;0.80;;
74892;SDS011;63446;56.272;43.922;2023-03-15T01:04:35;3.47;;;0.90;;
74892;SDS011;63446;56.272;43.922;2023-03-15T01:07:02;3.95;;;1.00;;
74892;SDS011;63446;56.272;43.922;2023-03-15T01:09:29;5.87;;;2.20;;
74892;SDS011;63446;56.272;43.922;2023-03-15T01:11:56;5.57;;;2.90;;
74892;SDS011;63446;56.272;43.922;2023-03-15T01:14:22;4.85;;;2.45;;
74892;SDS011;63446;56.272;43.922;2023-03-15T01:16:48;8.25;;;3.70;;
74892;SDS011;63446;56.272;43.922;2023-03-15T01:19:15;9.10;;;4.47;;
74892;SDS011;63446;56.272;43.922;2023-03-15T01:21:41;11.17;;;6.53;;
74892;SDS011;63446;56.272;43.922;2023-03-15T01:24:11;11.43;;;7.20;;
74892;SDS011;63446;56.272;43.922;2023-03-15T01:26:39;21.52;;;11.20;;
74892;SDS011;63446;56.272;43.922;2023-03-15T01:29:06;19.33;;;12.38;;
74892;SDS011;63446;56.272;43.922;2023-03-15T01:31:33;22.10;;;14.68;;
74892;SDS011;63446;56.272;43.922;2023-03-15T01:33:59;27.70;;;17.07;;
74892;SDS011;63446;56.272;43.922;2023-03-15T01:36:28;30.02;;;18.17;;
74892;SDS011;63446;56.272;43.922;2023-03-15T01:38:54;30.17;;;18.13;;
74892;SDS011;63446;56.272;43.922;2023-03-15T01:41:25;25.58;;;16.38;;
74892;SDS011;63446;56.272;43.922;2023-03-15T01:43:53;18.85;;;12.48;;
74892;SDS011;63446;56.272;43.922;2023-03-15T01:56:30;14.85;;;7.45;;
74892;SDS011;63446;56.272;43.922;2023-03-15T01:58:59;11.95;;;6.47;;
74892;SDS011;63446;56.272;43.922;2023-03-15T02:01:28;11.50;;;5.43;;
74892;SDS011;63446;56.272;43.922;2023-03-15T02:03:58;13.60;;;6.73;;
74892;SDS011;63446;56.272;43.922;2023-03-15T02:06:32;12.85;;;7.30;;
74892;SDS011;63446;56.272;43.922;2023-03-15T02:09:05;14.30;;;7.75;;
74892;SDS011;63446;56.272;43.922;2023-03-15T02:11:37;15.00;;;9.95;;
74892;SDS011;63446;56.272;43.922;2023-03-15T02:14:03;18.33;;;11.45;;
74892;SDS011;63446;56.272;43.922;2023-03-15T02:16:32;21.63;;;12.20;;
74892;SDS011;63446;56.272;43.922;2023-03-15T02:19:04;19.42;;;8.65;;
74892;SDS011;63446;56.272;43.922;2023-03-15T02:27:08;12.93;;;6.50;;
74892;SDS011;63446;56.272;43.922;2023-03-15T02:29:34;13.57;;;6.97;;
74892;SDS011;63446;56.272;43.922;2023-03-15T02:32:00;17.30;;;7.70;;
74892;SDS011;63446;56.272;43.922;2023-03-15T02:34:30;12.32;;;6.57;;
74892;SDS011;63446;56.272;43.922;2023-03-15T02:36:56;10.60;;;3.85;;
74892;SDS011;63446;56.272;43.922;2023-03-15T02:39:22;11.57;;;4.07;;
74892;SDS011;63446;56.272;43.922;2023-03-15T02:41:56;12.38;;;3.60;;
74892;SDS011;63446;56.272;43.922;2023-03-15T02:44:26;8.75;;;2.67;;
74892;SDS011;63446;56.272;43.922;2023-03-15T02:46:56;7.38;;;2.22;;
74892;SDS011;63446;56.272;43.922;2023-03-15T02:49:29;5.00;;;2.05;;
74892;SDS011;63446;56.272;43.922;2023-03-15T02:51:56;4.83;;;1.53;;
74892;SDS011;63446;56.272;43.922;2023-03-15T02:54:22;3.85;;;1.05;;
74892;SDS011;63446;56.272;43.922;2023-03-15T02:56:48;6.53;;;1.00;;
74892;SDS011;63446;56.272;43.922;2023-03-15T02:59:14;4.45;;;1.00;;
74892;SDS011;63446;56.272;43.922;2023-03-15T03:01:41;5.18;;;1.27;;
74892;SDS011;63446;56.272;43.922;2023-03-15T03:04:10;6.10;;;1.20;;
74892;SDS011;63446;56.272;43.922;2023-03-15T03:06:36;4.53;;;1.15;;
74892;SDS011;63446;56.272;43.922;2023-03-15T03:09:04;3.85;;;1.30;;
74892;SDS011;63446;56.272;43.922;2023-03-15T03:11:29;4.80;;;1.10;;
74892;SDS011;63446;56.272;43.922;2023-03-15T03:13:56;4.88;;;1.40;;
74892;SDS011;63446;56.272;43.922;2023-03-15T03:16:26;5.80;;;1.40;;
74892;SDS011;63446;56.272;43.922;2023-03-15T03:18:52;6.10;;;1.27;;
74892;SDS011;63446;56.272;43.922;2023-03-15T03:21:18;3.92;;;1.30;;
74892;SDS011;63446;56.272;43.922;2023-03-15T03:23:43;5.35;;;1.17;;
74892;SDS011;63446;56.272;43.922;2023-03-15T03:26:14;4.28;;;1.25;;
74892;SDS011;63446;56.272;43.922;2023-03-15T03:28:44;3.83;;;1.15;;
74892;SDS011;63446;56.272;43.922;2023-03-15T03:31:18;4.25;;;1.20;;
74892;SDS011;63446;56.272;43.922;2023-03-15T03:33:47;3.35;;;1.00;;
74892;SDS011;63446;56.272;43.922;2023-03-15T03:36:14;4.63;;;1.00;;
74892;SDS011;63446;56.272;43.922;2023-03-15T03:38:40;3.78;;;1.30;;
74892;SDS011;63446;56.272;43.922;2023-03-15T03:41:07;4.63;;;1.20;;
74892;SDS011;63446;56.272;43.922;2023-03-15T03:43:34;5.68;;;1.30;;
74892;SDS011;63446;56.272;43.922;2023-03-15T03:46:00;6.27;;;1.17;;
74892;SDS011;63446;56.272;43.922;2023-03-15T03:48:27;4.38;;;1.40;;
74892;SDS011;63446;56.272;43.922;2023-03-15T03:50:53;3.90;;;1.20;;
74892;SDS011;63446;56.272;43.922;2023-03-15T03:53:18;4.63;;;1.20;;
74892;SDS011;63446;56.272;43.922;2023-03-15T03:55:44;4.45;;;1.20;;
74892;SDS011;63446;56.272;43.922;2023-03-15T03:58:15;4.45;;;1.10;;
74892;SDS011;63446;56.272;43.922;2023-03-15T04:00:46;5.53;;;1.17;;
74892;SDS011;63446;56.272;43.922;2023-03-15T04:03:14;4.63;;;0.90;;
74892;SDS011;63446;56.272;43.922;2023-03-15T04:05:45;5.23;;;1.30;;
74892;SDS011;63446;56.272;43.922;2023-03-15T04:08:15;3.70;;;1.20;;
74892;SDS011;63446;56.272;43.922;2023-03-15T04:10:41;4.13;;;1.20;;
74892;SDS011;63446;56.272;43.922;2023-03-15T04:13:08;4.23;;;1.20;;
74892;SDS011;63446;56.272;43.922;2023-03-15T04:15:34;5.03;;;1.38;;
74892;SDS011;63446;56.272;43.922;2023-03-15T04:18:00;3.85;;;1.08;;
74892;SDS011;63446;56.272;43.922;2023-03-15T04:20:35;3.47;;;1.15;;
74892;SDS011;63446;56.272;43.922;2023-03-15T04:23:02;3.83;;;1.20;;
74892;SDS011;63446;56.272;43.922;2023-03-15T04:25:38;4.65;;;1.10;;
74892;SDS011;63446;56.272;43.922;2023-03-15T04:28:21;4.07;;;1.30;;
74892;SDS011;63446;56.272;43.922;2023-03-15T04:31:09;4.47;;;1.67;;
74892;SDS011;63446;56.272;43.922;2023-03-15T04:33:57;4.55;;;1.30;;
74892;SDS011;63446;56.272;43.922;2023-03-15T04:36:40;4.57;;;1.40;;
74892;SDS011;63446;56.272;43.922;2023-03-15T04:39:34;3.88;;;1.33;;
74892;SDS011;63446;56.272;43.922;2023-03-15T04:42:19;4.47;;;1.42;;
74892;SDS011;63446;56.272;43.922;2023-03-15T04:45:06;3.65;;;1.27;;
74892;SDS011;63446;56.272;43.922;2023-03-15T04:47:51;6.28;;;1.70;;
74892;SDS011;63446;56.272;43.922;2023-03-15T04:50:43;3.37;;;1.50;;
74892;SDS011;63446;56.272;43.922;2023-03-15T04:53:16;4.10;;;1.63;;
74892;SDS011;63446;56.272;43.922;2023-03-15T04:55:46;4.45;;;1.52;;
74892;SDS011;63446;56.272;43.922;2023-03-15T04:58:27;4.88;;;1.80;;
74892;SDS011;63446;56.272;43.922;2023-03-15T05:01:13;3.55;;;1.35;;
74892;SDS011;63446;56.272;43.922;2023-03-15T05:04:15;3.50;;;1.03;;
74892;SDS011;63446;56.272;43.922;2023-03-15T05:07:14;7.03;;;1.60;;
74892;SDS011;63446;56.272;43.922;2023-03-15T05:09:53;5.25;;;1.90;;
74892;SDS011;63446;56.272;43.922;2023-03-15T05:12:31;5.85;;;1.70;;
74892;SDS011;63446;56.272;43.922;2023-03-15T05:15:22;4.13;;;1.60;;
74892;SDS011;63446;56.272;43.922;2023-03-15T05:18:19;5.90;;;2.10;;
74892;SDS011;63446;56.272;43.922;2023-03-15T05:21:04;6.05;;;2.10;;
74892;SDS011;63446;56.272;43.922;2023-03-15T05:23:39;4.47;;;1.50;;
74892;SDS011;63446;56.272;43.922;2023-03-15T05:26:26;5.28;;;1.58;;
74892;SDS011;63446;56.272;43.922;2023-03-15T05:29:20;3.67;;;1.60;;
74892;SDS011;63446;56.272;43.922;2023-03-15T05:32:23;5.87;;;1.67;;
74892;SDS011;63446;56.272;43.922;2023-03-15T05:35:11;5.13;;;1.67;;
74892;SDS011;63446;56.272;43.922;2023-03-15T05:37:47;4.63;;;1.40;;
74892;SDS011;63446;56.272;43.922;2023-03-15T05:40:28;6.38;;;2.00;;
74892;SDS011;63446;56.272;43.922;2023-03-15T05:43:07;6.18;;;1.90;;
74892;SDS011;63446;56.272;43.922;2023-03-15T05:45:45;7.87;;;2.20;;
74892;SDS011;63446;56.272;43.922;2023-03-15T05:48:38;5.78;;;2.05;;
74892;SDS011;63446;56.272;43.922;2023-03-15T05:51:22;5.53;;;2.22;;
74892;SDS011;63446;56.272;43.922;2023-03-15T05:54:09;4.97;;;1.88;;
74892;SDS011;63446;56.272;43.922;2023-03-15T05:56:48;6.68;;;2.03;;
74892;SDS011;63446;56.272;43.922;2023-03-15T05:59:13;6.43;;;2.33;;
74892;SDS011;63446;56.272;43.922;2023-03-15T06:02:17;6.90;;;3.00;;
74892;SDS011;63446;56.272;43.922;2023-03-15T06:04:53;8.18;;;2.60;;
74892;SDS011;63446;56.272;43.922;2023-03-15T06:07:23;6.32;;;2.17;;
74892;SDS011;63446;56.272;43.922;2023-03-15T06:09:50;6.53;;;2.88;;
74892;SDS011;63446;56.272;43.922;2023-03-15T06:12:16;7.03;;;2.30;;
74892;SDS011;63446;56.272;43.922;2023-03-15T06:14:42;6.10;;;2.53;;
74892;SDS011;63446;56.272;43.922;2023-03-15T06:17:10;7.18;;;2.50;;
74892;SDS011;63446;56.272;43.922;2023-03-15T06:19:37;10.95;;;3.03;;
74892;SDS011;63446;56.272;43.922;2023-03-15T06:22:03;7.90;;;3.20;;
74892;SDS011;63446;56.272;43.922;2023-03-15T06:24:36;6.95;;;2.83;;
74892;SDS011;63446;56.272;43.922;2023-03-15T06:27:03;7.80;;;2.35;;
74892;SDS011;63446;56.272;43.922;2023-03-15T06:29:29;6.43;;;2.50;;
74892;SDS011;63446;56.272;43.922;2023-03-15T06:31:56;6.53;;;2.40;;
74892;SDS011;63446;56.272;43.922;2023-03-15T06:34:25;5.45;;;2.67;;
74892;SDS011;63446;56.272;43.922;2023-03-15T06:36:51;7.78;;;2.35;;
74892;SDS011;63446;56.272;43.922;2023-03-15T06:39:17;6.35;;;2.40;;
74892;SDS011;63446;56.272;43.922;2023-03-15T06:41:43;5.30;;;2.27;;
74892;SDS011;63446;56.272;43.922;2023-03-15T06:44:17;6.93;;;2.28;;
74892;SDS011;63446;56.272;43.922;2023-03-15T06:46:43;7.13;;;2.80;;
74892;SDS011;63446;56.272;43.922;2023-03-15T06:49:10;9.13;;;2.53;;
74892;SDS011;63446;56.272;43.922;2023-03-15T06:51:36;8.27;;;2.40;;
74892;SDS011;63446;56.272;43.922;2023-03-15T06:54:02;5.38;;;2.45;;
74892;SDS011;63446;56.272;43.922;2023-03-15T06:56:29;5.22;;;2.55;;
74892;SDS011;63446;56.272;43.922;2023-03-15T06:58:55;6.97;;;2.10;;
74892;SDS011;63446;56.272;43.922;2023-03-15T07:01:21;6.53;;;2.47;;
74892;SDS011;63446;56.272;43.922;2023-03-15T07:03:46;6.85;;;2.53;;
74892;SDS011;63446;56.272;43.922;2023-03-15T07:06:12;9.37;;;3.20;;
74892;SDS011;63446;56.272;43.922;2023-03-15T07:08:39;7.57;;;3.28;;
74892;SDS011;63446;56.272;43.922;2023-03-15T07:11:05;8.85;;;3.00;;
74892;SDS011;63446;56.272;43.922;2023-03-15T07:13:30;6.93;;;2.60;;
74892;SDS011;63446;56.272;43.922;2023-03-15T07:15:57;7.88;;;3.00;;
74892;SDS011;63446;56.272;43.922;2023-03-15T07:18:23;5.70;;;2.97;;
74892;SDS011;63446;56.272;43.922;2023-03-15T07:20:58;9.90;;;3.27;;
74892;SDS011;63446;56.272;43.922;2023-03-15T07:23:26;8.80;;;2.88;;
74892;SDS011;63446;56.272;43.922;2023-03-15T07:25:52;8.20;;;2.85;;
74892;SDS011;63446;56.272;43.922;2023-03-15T07:28:19;9.55;;;2.92;;
74892;SDS011;63446;56.272;43.922;2023-03-15T07:30:52;6.40;;;2.50;;
74892;SDS011;63446;56.272;43.922;2023-03-15T07:33:19;8.02;;;2.70;;
74892;SDS011;63446;56.272;43.922;2023-03-15T07:35:47;9.02;;;2.90;;
74892;SDS011;63446;56.272;43.922;2023-03-15T07:38:13;8.25;;;2.72;;
74892;SDS011;63446;56.272;43.922;2023-03-15T07:40:39;8.67;;;2.70;;
74892;SDS011;63446;56.272;43.922;2023-03-15T07:43:05;7.32;;;2.83;;
74892;SDS011;63446;56.272;43.922;2023-03-15T07:45:30;8.60;;;2.50;;
74892;SDS011;63446;56.272;43.922;2023-03-15T07:47:56;6.40;;;2.55;;
74892;SDS011;63446;56.272;43.922;2023-03-15T07:50:22;6.20;;;2.72;;
74892;SDS011;63446;56.272;43.922;2023-03-15T07:52:49;8.15;;;2.88;;
74892;SDS011;63446;56.272;43.922;2023-03-15T07:55:16;6.07;;;2.60;;
74892;SDS011;63446;56.272;43.922;2023-03-15T07:57:42;6.53;;;2.85;;
74892;SDS011;63446;56.272;43.922;2023-03-15T08:00:09;8.97;;;2.90;;
74892;SDS011;63446;56.272;43.922;2023-03-15T08:02:38;10.77;;;3.70;;
74892;SDS011;63446;56.272;43.922;2023-03-15T08:05:05;6.97;;;3.10;;
74892;SDS011;63446;56.272;43.922;2023-03-15T08:07:31;6.38;;;3.10;;
74892;SDS011;63446;56.272;43.922;2023-03-15T08:09:57;8.33;;;3.40;;
74892;SDS011;63446;56.272;43.922;2023-03-15T08:12:23;6.93;;;2.97;;
74892;SDS011;63446;56.272;43.922;2023-03-15T08:14:49;6.23;;;3.17;;
74892;SDS011;63446;56.272;43.922;2023-03-15T08:17:16;7.68;;;2.97;;
74892;SDS011;63446;56.272;43.922;2023-03-15T08:19:42;7.07;;;3.30;;
74892;SDS011;63446;56.272;43.922;2023-03-15T08:22:09;8.98;;;3.42;;
74892;SDS011;63446;56.272;43.922;2023-03-15T08:24:35;7.28;;;3.40;;
74892;SDS011;63446;56.272;43.922;2023-03-15T08:27:01;8.93;;;2.60;;
74892;SDS011;63446;56.272;43.922;2023-03-15T08:29:27;9.90;;;3.22;;
74892;SDS011;63446;56.272;43.922;2023-03-15T08:31:53;7.82;;;3.20;;
74892;SDS011;63446;56.272;43.922;2023-03-15T08:34:19;8.70;;;3.63;;
74892;SDS011;63446;56.272;43.922;2023-03-15T08:36:46;9.02;;;3.92;;
74892;SDS011;63446;56.272;43.922;2023-03-15T08:39:14;6.22;;;3.15;;
74892;SDS011;63446;56.272;43.922;2023-03-15T08:41:40;11.13;;;4.93;;
74892;SDS011;63446;56.272;43.922;2023-03-15T08:44:08;8.13;;;3.80;;
74892;SDS011;63446;56.272;43.922;2023-03-15T08:46:34;7.60;;;2.92;;
74892;SDS011;63446;56.272;43.922;2023-03-15T08:49:03;8.38;;;3.63;;
74892;SDS011;63446;56.272;43.922;2023-03-15T08:51:29;9.87;;;4.73;;
74892;SDS011;63446;56.272;43.922;2023-03-15T08:53:55;9.13;;;4.20;;
74892;SDS011;63446;56.272;43.922;2023-03-15T08:56:21;7.05;;;2.97;;
74892;SDS011;63446;56.272;43.922;2023-03-15T08:58:48;4.85;;;2.28;;
74892;SDS011;63446;56.272;43.922;2023-03-15T09:01:14;6.50;;;2.60;;
74892;SDS011;63446;56.272;43.922;2023-03-15T09:03:40;7.20;;;2.78;;
74892;SDS011;63446;56.272;43.922;2023-03-15T09:06:07;7.38;;;2.42;;
74892;SDS011;63446;56.272;43.922;2023-03-15T09:08:34;6.75;;;2.78;;
74892;SDS011;63446;56.272;43.922;2023-03-15T09:11:00;6.88;;;2.78;;
74892;SDS011;63446;56.272;43.922;2023-03-15T09:13:26;5.88;;;2.17;;
74892;SDS011;63446;56.272;43.922;2023-03-15T09:15:53;5.90;;;2.70;;
74892;SDS011;63446;56.272;43.922;2023-03-15T09:18:20;6.00;;;2.05;;
74892;SDS011;63446;56.272;43.922;2023-03-15T09:20:47;5.25;;;2.10;;
74892;SDS011;63446;56.272;43.922;2023-03-15T09:23:12;7.28;;;2.35;;
74892;SDS011;63446;56.272;43.922;2023-03-15T09:25:38;6.50;;;2.25;;
74892;SDS011;63446;56.272;43.922;2023-03-15T09:28:05;7.55;;;1.90;;
74892;SDS011;63446;56.272;43.922;2023-03-15T09:30:34;6.73;;;2.43;;
74892;SDS011;63446;56.272;43.922;2023-03-15T09:33:01;6.55;;;2.50;;
74892;SDS011;63446;56.272;43.922;2023-03-15T09:35:27;6.18;;;2.10;;
74892;SDS011;63446;56.272;43.922;2023-03-15T09:37:53;4.17;;;1.53;;
74892;SDS011;63446;56.272;43.922;2023-03-15T09:40:29;4.22;;;1.75;;
74892;SDS011;63446;56.272;43.922;2023-03-15T09:48:23;4.63;;;1.20;;
74892;SDS011;63446;56.272;43.922;2023-03-15T09:50:51;4.57;;;1.70;;
74892;SDS011;63446;56.272;43.922;2023-03-15T09:53:25;7.45;;;1.83;;
74892;SDS011;63446;56.272;43.922;2023-03-15T09:55:56;5.82;;;1.40;;
74892;SDS011;63446;56.272;43.922;2023-03-15T09:58:27;6.40;;;1.65;;
74892;SDS011;63446;56.272;43.922;2023-03-15T10:00:58;5.35;;;1.58;;
74892;SDS011;63446;56.272;43.922;2023-03-15T10:06:18;5.07;;;1.40;;
74892;SDS011;63446;56.272;43.922;2023-03-15T10:08:47;6.75;;;1.75;;
74892;SDS011;63446;56.272;43.922;2023-03-15T10:11:33;4.70;;;1.20;;
74892;SDS011;63446;56.272;43.922;2023-03-15T10:16:50;7.53;;;1.97;;
74892;SDS011;63446;56.272;43.922;2023-03-15T10:19:30;4.10;;;1.67;;
74892;SDS011;63446;56.272;43.922;2023-03-15T10:24:45;8.32;;;2.00;;
74892;SDS011;63446;56.272;43.922;2023-03-15T10:27:42;7.57;;;2.20;;
74892;SDS011;63446;56.272;43.922;2023-03-15T10:30:19;6.83;;;1.43;;
74892;SDS011;63446;56.272;43.922;2023-03-15T10:32:47;6.20;;;1.55;;
74892;SDS011;63446;56.272;43.922;2023-03-15T10:35:19;7.07;;;1.10;;
74892;SDS011;63446;56.272;43.922;2023-03-15T10:37:45;5.45;;;1.42;;
74892;SDS011;63446;56.272;43.922;2023-03-15T10:40:12;9.47;;;1.70;;
74892;SDS011;63446;56.272;43.922;2023-03-15T10:42:41;7.10;;;1.27;;
74892;SDS011;63446;56.272;43.922;2023-03-15T10:45:21;6.68;;;1.33;;
74892;SDS011;63446;56.272;43.922;2023-03-15T10:47:49;3.72;;;1.27;;
74892;SDS011;63446;56.272;43.922;2023-03-15T10:50:18;3.47;;;1.17;;
74892;SDS011;63446;56.272;43.922;2023-03-15T10:52:53;5.22;;;1.23;;
74892;SDS011;63446;56.272;43.922;2023-03-15T10:55:31;4.25;;;1.15;;
74892;SDS011;63446;56.272;43.922;2023-03-15T10:58:13;6.40;;;1.60;;
74892;SDS011;63446;56.272;43.922;2023-03-15T11:00:50;5.40;;;1.73;;
74892;SDS011;63446;56.272;43.922;2023-03-15T11:03:18;4.93;;;1.38;;
74892;SDS011;63446;56.272;43.922;2023-03-15T11:05:49;4.78;;;1.55;;
74892;SDS011;63446;56.272;43.922;2023-03-15T11:08:21;5.53;;;1.60;;
74892;SDS011;63446;56.272;43.922;2023-03-15T11:10:56;5.10;;;1.85;;
74892;SDS011;63446;56.272;43.922;2023-03-15T11:13:30;4.57;;;1.50;;
74892;SDS011;63446;56.272;43.922;2023-03-15T11:18:57;5.57;;;1.45;;
74892;SDS011;63446;56.272;43.922;2023-03-15T11:21:37;5.45;;;1.40;;
74892;SDS011;63446;56.272;43.922;2023-03-15T11:24:05;4.75;;;1.40;;
74892;SDS011;63446;56.272;43.922;2023-03-15T11:26:34;7.07;;;1.30;;
74892;SDS011;63446;56.272;43.922;2023-03-15T11:29:03;5.05;;;1.27;;
74892;SDS011;63446;56.272;43.922;2023-03-15T11:31:36;5.85;;;1.60;;
74892;SDS011;63446;56.272;43.922;2023-03-15T11:34:07;3.60;;;1.25;;
74892;SDS011;63446;56.272;43.922;2023-03-15T11:36:39;5.30;;;1.75;;
74892;SDS011;63446;56.272;43.922;2023-03-15T11:39:12;4.68;;;1.45;;
74892;SDS011;63446;56.272;43.922;2023-03-15T11:41:45;5.72;;;1.25;;
74892;SDS011;63446;56.272;43.922;2023-03-15T11:44:20;5.75;;;1.73;;
74892;SDS011;63446;56.272;43.922;2023-03-15T11:49:53;5.57;;;1.85;;
74892;SDS011;63446;56.272;43.922;2023-03-15T11:52:21;8.00;;;1.70;;
74892;SDS011;63446;56.272;43.922;2023-03-15T11:54:51;7.32;;;2.15;;
74892;SDS011;63446;56.272;43.922;2023-03-15T12:08:47;5.68;;;1.83;;
74892;SDS011;63446;56.272;43.922;2023-03-15T12:16:19;4.13;;;1.90;;
74892;SDS011;63446;56.272;43.922;2023-03-15T12:18:46;4.63;;;1.88;;
74892;SDS011;63446;56.272;43.922;2023-03-15T12:21:14;4.95;;;2.45;;
74892;SDS011;63446;56.272;43.922;2023-03-15T12:23:57;6.28;;;2.65;;
74892;SDS011;63446;56.272;43.922;2023-03-15T12:26:26;5.45;;;2.50;;
74892;SDS011;63446;56.272;43.922;2023-03-15T12:29:16;5.28;;;2.60;;
74892;SDS011;63446;56.272;43.922;2023-03-15T12:34:14;7.38;;;2.95;;
74892;SDS011;63446;56.272;43.922;2023-03-15T12:36:50;5.22;;;2.90;;
74892;SDS011;63446;56.272;43.922;2023-03-15T12:39:34;7.18;;;2.70;;
74892;SDS011;63446;56.272;43.922;2023-03-15T12:42:02;5.70;;;2.55;;
74892;SDS011;63446;56.272;43.922;2023-03-15T12:44:42;6.07;;;2.60;;
74892;SDS011;63446;56.272;43.922;2023-03-15T12:47:09;6.88;;;2.88;;
74892;SDS011;63446;56.272;43.922;2023-03-15T12:49:37;5.05;;;2.50;;
74892;SDS011;63446;56.272;43.922;2023-03-15T12:57:22;6.85;;;3.13;;
74892;SDS011;63446;56.272;43.922;2023-03-15T13:02:34;6.88;;;2.90;;
74892;SDS011;63446;56.272;43.922;2023-03-15T13:05:27;10.73;;;3.47;;
74892;SDS011;63446;56.272;43.922;2023-03-15T13:10:37;6.88;;;3.25;;
74892;SDS011;63446;56.272;43.922;2023-03-15T13:18:08;7.07;;;3.85;;
74892;SDS011;63446;56.272;43.922;2023-03-15T13:20:36;8.70;;;3.70;;
74892;SDS011;63446;56.272;43.922;2023-03-15T13:28:40;6.13;;;3.22;;
74892;SDS011;63446;56.272;43.922;2023-03-15T13:31:23;6.20;;;2.90;;
74892;SDS011;63446;56.272;43.922;2023-03-15T13:33:52;6.43;;;2.90;;
74892;SDS011;63446;56.272;43.922;2023-03-15T13:38:53;6.20;;;2.95;;
74892;SDS011;63446;56.272;43.922;2023-03-15T13:43:53;8.27;;;3.40;;
74892;SDS011;63446;56.272;43.922;2023-03-15T13:46:22;8.32;;;3.10;;
74892;SDS011;63446;56.272;43.922;2023-03-15T13:48:50;6.82;;;2.90;;
74892;SDS011;63446;56.272;43.922;2023-03-15T13:51:21;7.38;;;2.80;;
74892;SDS011;63446;56.272;43.922;2023-03-15T13:53:54;6.07;;;2.72;;
74892;SDS011;63446;56.272;43.922;2023-03-15T13:56:38;8.35;;;3.92;;
74892;SDS011;63446;56.272;43.922;2023-03-15T13:59:09;9.82;;;4.07;;
74892;SDS011;63446;56.272;43.922;2023-03-15T14:01:37;7.90;;;3.97;;
74892;SDS011;63446;56.272;43.922;2023-03-15T14:04:16;7.20;;;3.85;;
74892;SDS011;63446;56.272;43.922;2023-03-15T14:06:43;8.02;;;4.15;;
74892;SDS011;63446;56.272;43.922;2023-03-15T14:09:18;9.60;;;3.78;;
74892;SDS011;63446;56.272;43.922;2023-03-15T14:12:32;7.82;;;3.50;;
74892;SDS011;63446;56.272;43.922;2023-03-15T14:14:58;8.02;;;3.65;;
74892;SDS011;63446;56.272;43.922;2023-03-15T14:17:26;7.78;;;3.50;;
74892;SDS011;63446;56.272;43.922;2023-03-15T14:20:04;7.95;;;3.80;;
74892;SDS011;63446;56.272;43.922;2023-03-15T14:22:36;7.80;;;3.65;;
74892;SDS011;63446;56.272;43.922;2023-03-15T14:25:18;8.27;;;3.47;;
74892;SDS011;63446;56.272;43.922;2023-03-15T14:27:46;6.85;;;3.58;;
74892;SDS011;63446;56.272;43.922;2023-03-15T14:30:17;7.28;;;3.38;;
74892;SDS011;63446;56.272;43.922;2023-03-15T14:32:54;5.90;;;3.13;;
74892;SDS011;63446;56.272;43.922;2023-03-15T14:35:29;6.22;;;2.72;;
74892;SDS011;63446;56.272;43.922;2023-03-15T14:38:01;7.68;;;3.08;;
74892;SDS011;63446;56.272;43.922;2023-03-15T14:40:34;7.97;;;2.83;;
74892;SDS011;63446;56.272;43.922;2023-03-15T14:43:02;7.68;;;3.08;;
74892;SDS011;63446;56.272;43.922;2023-03-15T14:45:30;6.28;;;2.90;;
74892;SDS011;63446;56.272;43.922;2023-03-15T14:48:09;5.75;;;2.60;;
74892;SDS011;63446;56.272;43.922;2023-03-15T14:50:38;6.55;;;2.75;;
74892;SDS011;63446;56.272;43.922;2023-03-15T14:53:06;5.43;;;2.45;;
74892;SDS011;63446;56.272;43.922;2023-03-15T14:55:38;8.18;;;2.80;;
74892;SDS011;63446;56.272;43.922;2023-03-15T14:58:08;8.95;;;3.20;;
74892;SDS011;63446;56.272;43.922;2023-03-15T15:00:37;5.68;;;2.80;;
74892;SDS011;63446;56.272;43.922;2023-03-15T15:03:03;8.07;;;3.10;;
74892;SDS011;63446;56.272;43.922;2023-03-15T15:05:40;6.70;;;3.45;;
74892;SDS011;63446;56.272;43.922;2023-03-15T15:10:38;9.95;;;3.90;;
74892;SDS011;63446;56.272;43.922;2023-03-15T15:13:05;6.68;;;3.65;;
74892;SDS011;63446;56.272;43.922;2023-03-15T15:15:32;10.55;;;3.60;;
74892;SDS011;63446;56.272;43.922;2023-03-15T15:17:58;6.05;;;3.30;;
74892;SDS011;63446;56.272;43.922;2023-03-15T15:20:24;8.83;;;4.10;;
74892;SDS011;63446;56.272;43.922;2023-03-15T15:22:49;7.22;;;3.70;;
74892;SDS011;63446;56.272;43.922;2023-03-15T15:27:43;8.32;;;3.92;;
74892;SDS011;63446;56.272;43.922;2023-03-15T15:30:12;10.10;;;4.53;;
74892;SDS011;63446;56.272;43.922;2023-03-15T15:32:39;10.13;;;4.75;;
74892;SDS011;63446;56.272;43.922;2023-03-15T15:35:09;8.60;;;4.20;;
74892;SDS011;63446;56.272;43.922;2023-03-15T15:37:35;8.10;;;4.28;;
74892;SDS011;63446;56.272;43.922;2023-03-15T15:40:03;8.90;;;4.53;;
74892;SDS011;63446;56.272;43.922;2023-03-15T15:42:33;7.90;;;4.40;;
74892;SDS011;63446;56.272;43.922;2023-03-15T15:44:59;8.77;;;4.32;;
74892;SDS011;63446;56.272;43.922;2023-03-15T15:47:25;7.50;;;4.13;;
74892;SDS011;63446;56.272;43.922;2023-03-15T15:49:50;7.53;;;3.70;;
74892;SDS011;63446;56.272;43.922;2023-03-15T15:52:16;9.47;;;3.57;;
74892;SDS011;63446;56.272;43.922;2023-03-15T15:54:42;6.63;;;3.63;;
74892;SDS011;63446;56.272;43.922;2023-03-15T15:57:11;6.90;;;3.30;;
74892;SDS011;63446;56.272;43.922;2023-03-15T15:59:37;6.03;;;2.95;;
74892;SDS011;63446;56.272;43.922;2023-03-15T16:02:05;6.55;;;3.10;;
74892;SDS011;63446;56.272;43.922;2023-03-15T16:04:39;6.60;;;3.10;;
74892;SDS011;63446;56.272;43.922;2023-03-15T16:07:04;5.68;;;2.53;;
74892;SDS011;63446;56.272;43.922;2023-03-15T16:09:32;8.23;;;2.53;;
74892;SDS011;63446;56.272;43.922;2023-03-15T16:12:04;4.60;;;2.33;;
74892;SDS011;63446;56.272;43.922;2023-03-15T16:14:37;5.25;;;2.50;;
74892;SDS011;63446;56.272;43.922;2023-03-15T16:17:07;5.88;;;2.47;;
74892;SDS011;63446;56.272;43.922;2023-03-15T16:19:35;5.65;;;2.30;;